< < Back
Terminal Aerodrome Forecast


Current Version              Previous Versions:   1  2  3  4  5  6  7  8  9  

Terminal Aerodrome Forecast

429
FTUS42 KCHS 290520
TAFCHS
TAF
KCHS 290520Z 2906/3006 24009KT P6SM SKC
     FM291500 26010G15KT P6SM FEW050
     FM291800 24015G20KT P6SM SCT060
     FM292300 22009KT P6SM FEW080=



Latest METAR

552
SAUS80 KWBC 291000 CCA
MTRCHS
METAR KCHS 290956Z 26006KT 10SM CLR 27/22 A2996 RMK AO2 SLP143
T02670222


USA.gov is the U.S. government's official web portal to all federal, state and local government web resources and services.